Time;durP1;ratioP1;P1;durP2;ratioP2;P2;SDS_P1;SDS_P2;PMS_P1;PMS_P2;Temp;Humidity;BMP_temperature;BMP_pressure;BME280_temperature;BME280_humidity;BME280_pressure;Samples;Min_cycle;Max_cycle;Signal;HPM_P1;HPM_P2
2021/09/17 00:00:02;;;;;;;19.10;16.50;;;;;;;17.85;87.42;99964.73;93677;1196;82728;-81
2021/09/17 00:02:06;;;;;;;19.10;17.10;;;;;;;17.88;87.42;99965.36;93744;1196;98957;-82
2021/09/17 00:04:11;;;;;;;17.30;15.40;;;;;;;17.89;87.43;99963.60;93798;1196;87772;-84
2021/09/17 00:06:15;;;;;;;20.00;16.70;;;;;;;17.89;87.42;99964.69;93759;1196;94459;-85
2021/09/17 00:08:23;;;;;;;19.50;17.50;;;;;;;17.85;87.39;99963.09;93778;1196;78847;-73
2021/09/17 00:10:28;;;;;;;21.40;19.10;;;;;;;17.83;87.50;99961.08;93726;1196;81830;-62
2021/09/17 00:12:35;;;;;;;21.80;19.40;;;;;;;17.80;87.50;99960.27;93766;1196;98395;-62
2021/09/17 00:14:40;;;;;;;20.60;18.40;;;;;;;17.77;87.44;99956.83;93805;1196;88269;-62
2021/09/17 00:16:45;;;;;;;20.30;18.20;;;;;;;17.77;87.34;99948.02;93810;1196;93930;-62
2021/09/17 00:18:49;;;;;;;21.40;18.70;;;;;;;17.75;87.44;99943.56;93805;1196;78803;-62
2021/09/17 00:20:53;;;;;;;20.50;18.10;;;;;;;17.69;87.41;99941.16;93832;1196;80546;-62
2021/09/17 00:22:58;;;;;;;22.00;19.00;;;;;;;17.63;87.23;99948.27;93814;1195;98373;-63
2021/09/17 00:25:02;;;;;;;21.80;17.50;;;;;;;17.59;87.28;99950.48;93779;1196;88176;-62
2021/09/17 00:27:08;;;;;;;20.20;18.10;;;;;;;17.56;87.39;99950.27;93828;1196;94703;-62
2021/09/17 00:29:12;;;;;;;20.50;18.40;;;;;;;17.55;87.45;99950.48;93807;1196;81972;-62
2021/09/17 00:31:17;;;;;;;21.30;19.20;;;;;;;17.57;87.55;99951.70;93832;1196;80292;-63
2021/09/17 00:33:21;;;;;;;22.90;20.60;;;;;;;17.59;87.58;99950.16;93806;1196;97009;-75
2021/09/17 00:35:27;;;;;;;22.00;19.70;;;;;;;17.59;87.73;99944.69;93783;1196;86523;-85
2021/09/17 00:37:34;;;;;;;22.40;18.00;;;;;;;17.63;87.60;99943.30;93821;1196;91739;-84
2021/09/17 00:39:38;;;;;;;21.90;19.70;;;;;;;17.63;87.61;99939.52;93797;1196;80251;-61
2021/09/17 00:41:46;;;;;;;20.90;18.70;;;;;;;17.61;87.52;99942.29;93817;1196;82212;-63
2021/09/17 00:43:50;;;;;;;23.40;20.40;;;;;;;17.63;87.67;99941.55;93858;1196;97538;-85
2021/09/17 00:45:55;;;;;;;24.10;20.40;;;;;;;17.64;87.57;99943.69;93637;1196;87593;-85
2021/09/17 00:48:02;;;;;;;21.10;19.00;;;;;;;17.64;87.57;99944.69;93779;1196;94974;-84
2021/09/17 00:50:14;;;;;;;20.70;18.60;;;;;;;17.63;87.66;99940.39;93860;1196;80840;-63
2021/09/17 00:52:19;;;;;;;21.50;19.30;;;;;;;17.60;87.57;99941.89;93898;1196;81808;-63
2021/09/17 00:54:28;;;;;;;21.90;19.40;;;;;;;17.60;87.55;99941.23;93771;1196;98626;-62
2021/09/17 00:56:33;;;;;;;21.80;19.70;;;;;;;17.55;87.67;99942.34;93893;1195;88008;-62
2021/09/17 00:58:38;;;;;;;20.60;18.50;;;;;;;17.55;87.62;99944.85;93825;1196;94572;-63
2021/09/17 01:00:42;;;;;;;20.70;18.20;;;;;;;17.52;87.69;99937.56;93801;1196;81161;-62
2021/09/17 01:02:47;;;;;;;20.60;18.60;;;;;;;17.50;87.79;99934.08;93858;1196;82201;-64
2021/09/17 01:04:51;;;;;;;20.90;18.70;;;;;;;17.47;87.70;99934.40;93720;1196;98762;-61
2021/09/17 01:06:56;;;;;;;20.30;17.40;;;;;;;17.43;87.78;99931.75;93814;1196;86630;-62
2021/09/17 01:09:03;;;;;;;19.60;17.50;;;;;;;17.42;87.64;99927.64;93833;1195;94627;-62
2021/09/17 01:11:07;;;;;;;20.00;18.00;;;;;;;17.37;87.73;99932.05;93842;1196;81256;-62
2021/09/17 01:13:13;;;;;;;19.30;17.00;;;;;;;17.36;87.76;99928.84;93887;1196;81568;-63
2021/09/17 01:15:18;;;;;;;21.40;18.80;;;;;;;17.37;87.79;99927.15;93817;1196;97106;-85
2021/09/17 01:17:29;;;;;;;20.50;18.00;;;;;;;17.39;87.80;99923.48;93790;1196;88193;-86
2021/09/17 01:19:36;;;;;;;18.50;16.30;;;;;;;17.42;87.71;99924.61;93808;1196;94232;-63
2021/09/17 01:21:40;;;;;;;18.40;16.50;;;;;;;17.38;87.66;99922.27;93848;1195;80950;-62
2021/09/17 01:23:45;;;;;;;18.70;16.70;;;;;;;17.40;87.76;99919.91;93828;1196;81650;-60
2021/09/17 01:25:49;;;;;;;18.70;16.60;;;;;;;17.41;87.69;99920.85;93862;1196;99310;-62
2021/09/17 01:27:55;;;;;;;21.20;17.30;;;;;;;17.41;87.77;99922.11;93828;1196;88875;-61
2021/09/17 01:29:59;;;;;;;20.10;17.90;;;;;;;17.41;87.70;99918.50;93841;1196;94748;-84
2021/09/17 01:32:05;;;;;;;17.70;15.80;;;;;;;17.38;87.64;99921.66;93843;1196;80138;-82
2021/09/17 01:34:17;;;;;;;17.60;15.70;;;;;;;17.35;87.68;99916.64;93908;1196;82287;-62
2021/09/17 01:36:21;;;;;;;20.20;17.80;;;;;;;17.34;87.62;99917.39;93875;1196;98582;-63
2021/09/17 01:38:27;;;;;;;18.80;16.80;;;;;;;17.29;87.65;99915.95;93805;1196;87704;-83
2021/09/17 01:40:31;;;;;;;17.80;15.90;;;;;;;17.27;87.57;99910.27;93863;1195;94080;-84
2021/09/17 01:42:39;;;;;;;17.80;15.90;;;;;;;17.25;87.47;99912.73;93843;1196;81384;-84
2021/09/17 01:44:43;;;;;;;18.80;15.90;;;;;;;17.20;87.44;99912.43;93813;1196;80577;-85
2021/09/17 01:46:50;;;;;;;18.00;16.20;;;;;;;17.18;87.50;99912.05;93820;1196;98879;-85
2021/09/17 01:48:55;;;;;;;17.70;15.70;;;;;;;17.17;87.56;99913.13;93818;1196;88069;-62
2021/09/17 01:51:00;;;;;;;17.10;15.20;;;;;;;17.12;87.60;99907.91;93818;1196;93891;-62
2021/09/17 01:53:04;;;;;;;17.90;16.10;;;;;;;17.11;87.56;99911.49;93831;1196;79742;-63
2021/09/17 01:55:11;;;;;;;22.20;16.20;;;;;;;17.11;87.52;99909.80;93836;1196;81724;-84
2021/09/17 01:57:16;;;;;;;18.30;16.50;;;;;;;17.09;87.54;99912.23;93855;1196;98593;-83
2021/09/17 01:59:21;;;;;;;18.00;15.20;;;;;;;17.09;87.62;99914.30;93851;1196;86282;-83
2021/09/17 02:01:26;;;;;;;22.30;16.70;;;;;;;17.04;87.66;99913.66;93874;1195;93501;-83
2021/09/17 02:03:30;;;;;;;19.20;15.50;;;;;;;17.03;87.61;99911.06;93857;1196;80876;-82
2021/09/17 02:05:34;;;;;;;18.50;16.00;;;;;;;16.99;87.68;99906.51;93860;1196;80550;-84
2021/09/17 02:07:39;;;;;;;17.30;15.60;;;;;;;16.96;87.81;99909.71;93911;1196;97710;-84
2021/09/17 02:09:44;;;;;;;18.10;16.20;;;;;;;16.94;87.78;99905.77;93804;1196;88831;-63
2021/09/17 02:11:49;;;;;;;18.70;15.40;;;;;;;16.95;87.84;99903.14;93888;1196;94444;-63
2021/09/17 02:13:53;;;;;;;18.20;16.20;;;;;;;16.94;87.85;99904.67;93844;1196;80672;-61
2021/09/17 02:15:57;;;;;;;17.00;15.20;;;;;;;16.93;87.79;99902.01;93879;1196;83457;-62
2021/09/17 02:18:02;;;;;;;17.50;15.70;;;;;;;16.92;87.83;99904.85;93841;1196;99217;-62
2021/09/17 02:20:09;;;;;;;19.40;15.80;;;;;;;16.89;87.87;99902.23;93836;1196;88102;-84
2021/09/17 02:22:16;;;;;;;18.00;15.70;;;;;;;16.89;87.92;99902.17;93822;1196;94542;-83
2021/09/17 02:24:21;;;;;;;18.50;16.10;;;;;;;16.94;87.89;99899.64;93829;1196;81234;-84
2021/09/17 02:26:25;;;;;;;18.20;16.30;;;;;;;16.91;87.84;99898.50;93869;1196;81329;-83
2021/09/17 02:28:30;;;;;;;18.90;16.90;;;;;;;16.89;87.93;99895.55;93919;1196;98200;-62
2021/09/17 02:30:34;;;;;;;19.10;16.70;;;;;;;16.90;87.84;99890.45;93887;1196;86694;-61
2021/09/17 02:32:39;;;;;;;18.70;16.80;;;;;;;16.87;87.86;99891.98;93883;1196;92742;-61
2021/09/17 02:34:43;;;;;;;19.00;17.00;;;;;;;16.85;87.84;99890.73;93852;1196;81761;-62
2021/09/17 02:36:48;;;;;;;18.50;16.60;;;;;;;16.84;87.87;99887.17;93910;1196;81443;-63
2021/09/17 02:38:52;;;;;;;17.30;15.50;;;;;;;16.84;87.92;99887.38;93862;1196;99263;-83
2021/09/17 02:40:57;;;;;;;17.50;15.00;;;;;;;16.78;87.96;99881.75;93871;1195;87458;-84
2021/09/17 02:43:01;;;;;;;17.40;15.50;;;;;;;16.69;87.97;99878.13;93868;1196;92803;-83
2021/09/17 02:45:10;;;;;;;16.70;15.00;;;;;;;16.68;87.84;99872.75;93886;1196;80976;-61
2021/09/17 02:47:15;;;;;;;17.30;15.10;;;;;;;16.68;87.85;99874.39;93889;1196;81975;-62
2021/09/17 02:49:19;;;;;;;16.80;15.20;;;;;;;16.66;87.89;99868.96;93868;1196;99074;-62
2021/09/17 02:51:24;;;;;;;16.30;14.60;;;;;;;16.67;87.81;99868.33;93855;1196;87556;-62
2021/09/17 02:53:28;;;;;;;14.90;13.10;;;;;;;16.64;87.76;99869.48;93858;1196;94430;-63
2021/09/17 02:55:32;;;;;;;15.00;13.00;;;;;;;16.65;87.69;99869.66;93840;1196;81217;-61
2021/09/17 02:57:38;;;;;;;16.10;14.40;;;;;;;16.60;87.65;99869.90;93893;1196;81457;-64
2021/09/17 02:59:45;;;;;;;15.80;14.10;;;;;;;16.53;87.72;99873.45;93897;1196;98295;-85
2021/09/17 03:01:49;;;;;;;15.10;13.60;;;;;;;16.52;87.84;99874.84;93873;1196;90205;-84
2021/09/17 03:03:54;;;;;;;14.60;13.10;;;;;;;16.45;87.82;99874.36;93861;1196;94491;-82
2021/09/17 03:06:01;;;;;;;13.80;12.50;;;;;;;16.41;87.82;99873.30;93845;1196;79614;-84
2021/09/17 03:08:06;;;;;;;15.00;13.30;;;;;;;16.41;87.79;99870.37;93906;1196;81552;-82
2021/09/17 03:10:12;;;;;;;14.10;12.70;;;;;;;16.39;87.85;99876.96;93910;1196;97682;-61
2021/09/17 03:12:19;;;;;;;14.30;12.90;;;;;;;16.37;87.87;99876.32;93879;1196;88311;-62
2021/09/17 03:14:24;;;;;;;15.00;13.50;;;;;;;16.36;87.86;99871.45;93855;1196;94740;-84
2021/09/17 03:16:31;;;;;;;13.60;12.20;;;;;;;16.35;87.89;99876.00;93879;1196;81034;-85
2021/09/17 03:18:36;;;;;;;13.70;12.50;;;;;;;16.30;87.92;99871.31;93854;1196;82033;-61
2021/09/17 03:20:41;;;;;;;15.00;13.20;;;;;;;16.28;87.88;99865.22;93880;1196;99089;-62
2021/09/17 03:22:46;;;;;;;14.60;12.60;;;;;;;16.23;87.89;99861.41;93861;1196;86598;-62
2021/09/17 03:24:53;;;;;;;16.00;12.00;;;;;;;16.22;87.87;99860.50;93846;1196;93808;-84
2021/09/17 03:26:58;;;;;;;13.10;11.70;;;;;;;16.20;87.91;99858.63;93831;1196;80025;-84
2021/09/17 03:29:03;;;;;;;13.90;12.30;;;;;;;16.20;87.89;99861.02;93847;1196;82192;-84
2021/09/17 03:31:08;;;;;;;13.80;12.20;;;;;;;16.20;87.95;99860.95;93917;1196;98000;-84
2021/09/17 03:33:15;;;;;;;14.60;12.40;;;;;;;16.20;88.03;99861.40;93888;1195;86875;-84
2021/09/17 03:35:20;;;;;;;13.90;12.50;;;;;;;16.17;87.97;99860.62;93865;1196;93894;-84
2021/09/17 03:37:24;;;;;;;13.90;12.60;;;;;;;16.15;87.88;99860.85;93839;1196;80433;-86
2021/09/17 03:39:29;;;;;;;14.20;12.10;;;;;;;16.12;87.92;99860.78;93849;1196;81973;-63
2021/09/17 03:41:33;;;;;;;15.40;12.30;;;;;;;16.11;88.02;99862.71;93896;1196;99586;-62
2021/09/17 03:43:38;;;;;;;13.10;11.80;;;;;;;16.09;88.11;99859.51;93922;1195;86746;-84
2021/09/17 03:45:42;;;;;;;15.50;11.60;;;;;;;16.12;87.96;99863.56;93857;1196;92863;-85
2021/09/17 03:47:47;;;;;;;14.40;10.90;;;;;;;16.13;88.01;99862.32;93887;1196;81180;-84
2021/09/17 03:49:51;;;;;;;14.80;11.60;;;;;;;16.09;87.97;99863.27;93892;1196;81503;-83
2021/09/17 03:51:56;;;;;;;14.20;11.90;;;;;;;16.05;87.95;99862.48;93896;1196;98743;-83
2021/09/17 03:54:01;;;;;;;15.30;12.30;;;;;;;16.03;87.96;99865.91;93892;1196;87199;-61
2021/09/17 03:56:08;;;;;;;12.70;11.40;;;;;;;16.00;88.00;99865.08;93852;1196;94134;-63
2021/09/17 03:58:12;;;;;;;12.80;11.50;;;;;;;15.96;88.07;99862.10;93746;1196;79948;-61
2021/09/17 04:00:18;;;;;;;13.40;11.80;;;;;;;15.92;88.05;99864.75;93856;1196;80770;-83
2021/09/17 04:02:22;;;;;;;13.20;11.80;;;;;;;15.92;88.09;99863.21;93920;1196;98130;-83
2021/09/17 04:04:27;;;;;;;12.80;11.40;;;;;;;15.90;88.12;99866.16;93887;1196;87573;-83
2021/09/17 04:06:31;;;;;;;14.30;12.10;;;;;;;15.89;87.99;99863.85;93687;1197;93137;-84
2021/09/17 04:08:36;;;;;;;13.60;11.10;;;;;;;15.85;88.02;99860.70;93905;1196;79416;-83
2021/09/17 04:10:40;;;;;;;13.10;11.20;;;;;;;15.84;88.11;99863.08;93864;1196;81847;-82
2021/09/17 04:12:45;;;;;;;12.70;11.10;;;;;;;15.87;88.03;99861.20;93885;1196;98120;-83
2021/09/17 04:14:49;;;;;;;14.30;11.10;;;;;;;15.82;88.11;99860.58;93902;1196;87990;-63
2021/09/17 04:16:57;;;;;;;12.00;10.60;;;;;;;15.82;88.14;99861.45;93889;1196;93993;-63
2021/09/17 04:19:01;;;;;;;12.80;10.60;;;;;;;15.83;88.09;99859.40;93864;1196;81256;-83
2021/09/17 04:21:06;;;;;;;12.00;10.80;;;;;;;15.78;88.09;99865.10;93908;1196;79430;-82
2021/09/17 04:23:10;;;;;;;13.10;11.00;;;;;;;15.73;88.20;99863.80;93973;1196;98361;-82
2021/09/17 04:25:15;;;;;;;14.30;11.00;;;;;;;15.76;88.13;99862.11;93929;1196;88199;-63
2021/09/17 04:27:25;;;;;;;11.70;10.40;;;;;;;15.75;88.19;99858.40;94016;1196;93988;-61
2021/09/17 04:29:29;;;;;;;11.10;9.70;;;;;;;15.76;88.17;99862.49;93862;1196;81389;-62
2021/09/17 04:31:34;;;;;;;14.20;9.60;;;;;;;15.75;88.14;99858.95;93898;1196;82768;-64
2021/09/17 04:33:38;;;;;;;11.60;10.20;;;;;;;15.74;88.28;99858.80;93890;1196;99049;-85
2021/09/17 04:35:43;;;;;;;11.80;10.20;;;;;;;15.75;88.31;99860.36;93901;1196;88371;-85
2021/09/17 04:37:53;;;;;;;12.40;11.00;;;;;;;15.78;88.29;99860.65;93940;1196;93564;-86
2021/09/17 04:39:57;;;;;;;11.50;10.00;;;;;;;15.75;88.35;99861.99;93871;1196;81187;-62
2021/09/17 04:42:02;;;;;;;11.00;9.90;;;;;;;15.73;88.28;99861.58;93938;1196;82006;-62
2021/09/17 04:44:07;;;;;;;11.40;9.50;;;;;;;15.76;88.19;99864.45;93891;1196;99282;-61
2021/09/17 04:46:11;;;;;;;11.40;10.00;;;;;;;15.78;88.18;99863.84;93915;1196;85412;-60
2021/09/17 04:48:17;;;;;;;11.50;10.10;;;;;;;15.77;88.27;99867.42;93908;1196;94310;-61
2021/09/17 04:50:21;;;;;;;11.10;9.70;;;;;;;15.77;88.40;99866.33;93954;1196;79995;-62
2021/09/17 04:52:26;;;;;;;11.30;9.80;;;;;;;15.80;88.40;99867.11;93965;1196;80395;-63
2021/09/17 04:54:30;;;;;;;12.10;8.90;;;;;;;15.78;88.30;99868.81;93957;1196;99228;-83
2021/09/17 04:56:38;;;;;;;11.70;8.80;;;;;;;15.76;88.16;99871.00;93961;1196;87222;-82
2021/09/17 04:58:42;;;;;;;12.40;10.50;;;;;;;15.77;88.28;99869.72;93932;1196;92957;-62
2021/09/17 05:00:47;;;;;;;12.20;9.30;;;;;;;15.79;88.22;99873.40;93929;1197;79324;-62
2021/09/17 05:02:52;;;;;;;9.60;8.60;;;;;;;15.78;88.19;99869.90;93912;1196;82126;-61
2021/09/17 05:04:56;;;;;;;10.20;8.60;;;;;;;15.78;88.14;99870.28;93964;1196;98981;-84
2021/09/17 05:07:04;;;;;;;12.50;8.70;;;;;;;15.80;88.11;99873.48;93987;1196;87068;-82
2021/09/17 05:09:09;;;;;;;9.70;8.70;;;;;;;15.78;88.02;99874.42;93923;1196;92795;-62
2021/09/17 05:11:16;;;;;;;11.70;8.50;;;;;;;15.73;88.11;99873.00;93932;1197;79191;-61
2021/09/17 05:13:21;;;;;;;11.70;9.10;;;;;;;15.71;88.16;99875.66;93952;1195;81498;-66
2021/09/17 05:15:28;;;;;;;11.20;8.00;;;;;;;15.69;88.19;99879.33;93971;1196;98448;-83
2021/09/17 05:17:32;;;;;;;8.90;7.60;;;;;;;15.70;88.24;99880.48;93946;1196;87689;-82
2021/09/17 05:19:37;;;;;;;10.30;8.30;;;;;;;15.75;88.11;99879.81;93873;1196;93931;-83
2021/09/17 05:21:41;;;;;;;10.80;7.80;;;;;;;15.78;88.07;99884.15;93890;1196;78183;-81
2021/09/17 05:23:46;;;;;;;10.70;8.00;;;;;;;15.80;88.14;99880.35;93943;1196;81649;-84
2021/09/17 05:25:53;;;;;;;7.90;6.60;;;;;;;15.80;88.20;99881.10;93961;1196;99439;-84
2021/09/17 05:27:57;;;;;;;12.40;7.70;;;;;;;15.77;87.92;99882.19;93951;1196;86818;-84
2021/09/17 05:30:02;;;;;;;10.90;6.50;;;;;;;15.77;87.98;99878.26;93921;1196;92725;-84
2021/09/17 05:32:10;;;;;;;9.00;7.10;;;;;;;15.80;87.95;99879.55;93996;1196;79262;-84
2021/09/17 05:34:17;;;;;;;11.30;6.80;;;;;;;15.78;87.96;99881.50;93959;1196;80564;-84
2021/09/17 05:36:25;;;;;;;8.80;7.10;;;;;;;15.76;87.94;99881.17;93915;1197;99271;-83
2021/09/17 05:38:32;;;;;;;8.80;6.40;;;;;;;15.74;87.96;99883.31;93944;1197;87018;-62
2021/09/17 05:40:40;;;;;;;7.20;6.20;;;;;;;15.76;87.98;99883.53;93913;1196;94324;-61
2021/09/17 05:42:44;;;;;;;8.40;6.70;;;;;;;15.75;87.85;99880.73;93949;1196;81303;-62
2021/09/17 05:44:49;;;;;;;9.60;6.00;;;;;;;15.77;87.88;99879.85;93949;1196;81110;-84
2021/09/17 05:46:53;;;;;;;8.20;6.20;;;;;;;15.80;87.78;99881.18;93898;1196;98877;-85
2021/09/17 05:48:58;;;;;;;9.80;7.10;;;;;;;15.85;87.82;99883.58;93905;1196;89128;-86
2021/09/17 05:51:02;;;;;;;8.90;7.00;;;;;;;15.83;87.73;99879.71;93912;1196;94346;-85
2021/09/17 05:53:11;;;;;;;9.30;6.70;;;;;;;15.82;87.58;99883.52;93959;1196;80298;-84
2021/09/17 05:55:15;;;;;;;10.00;6.40;;;;;;;15.78;87.58;99884.61;93966;1196;83223;-83
2021/09/17 05:57:23;;;;;;;8.60;6.90;;;;;;;15.77;87.78;99883.60;93942;1196;99419;-85
2021/09/17 05:59:27;;;;;;;8.10;6.50;;;;;;;15.78;87.72;99882.21;93890;1195;88340;-62
2021/09/17 06:01:32;;;;;;;6.90;6.20;;;;;;;15.76;87.65;99885.16;93938;1196;93629;-61
2021/09/17 06:03:37;;;;;;;8.60;5.90;;;;;;;15.75;87.71;99885.17;93930;1196;79776;-84
2021/09/17 06:05:41;;;;;;;10.50;5.80;;;;;;;15.76;87.62;99886.83;93935;1196;81426;-84
2021/09/17 06:07:46;;;;;;;11.00;6.10;;;;;;;15.75;87.56;99884.22;93892;1196;98854;-85
2021/09/17 06:09:51;;;;;;;12.30;6.10;;;;;;;15.73;87.58;99884.50;93922;1195;87448;-62
2021/09/17 06:11:55;;;;;;;8.80;6.00;;;;;;;15.74;87.70;99889.05;93925;1196;95069;-62
2021/09/17 06:14:03;;;;;;;8.40;5.70;;;;;;;15.71;87.59;99886.07;93926;1196;80492;-61
2021/09/17 06:16:07;;;;;;;7.40;5.70;;;;;;;15.71;87.45;99890.98;93956;1196;82042;-63
2021/09/17 06:18:15;;;;;;;8.50;5.30;;;;;;;15.71;87.47;99889.56;93886;1196;97495;-62
2021/09/17 06:20:23;;;;;;;5.20;4.50;;;;;;;15.73;87.48;99887.55;93894;1196;87885;-76
2021/09/17 06:22:27;;;;;;;7.80;5.30;;;;;;;15.77;87.59;99884.71;93874;1196;94187;-76
2021/09/17 06:24:32;;;;;;;6.20;4.70;;;;;;;15.88;87.71;99885.98;93905;1196;79463;-77
2021/09/17 06:26:36;;;;;;;8.10;5.20;;;;;;;15.98;87.68;99885.74;93699;1196;80707;-76
2021/09/17 06:28:41;;;;;;;9.40;5.10;;;;;;;16.04;87.54;99886.59;93958;1196;98166;-62
2021/09/17 06:30:45;;;;;;;8.40;4.90;;;;;;;16.07;87.46;99885.63;93917;1196;87713;-62
2021/09/17 06:32:50;;;;;;;11.30;5.50;;;;;;;16.08;87.24;99886.30;93927;1196;94158;-62
2021/09/17 06:34:54;;;;;;;8.30;6.50;;;;;;;16.09;87.18;99886.05;93916;1195;79867;-62
2021/09/17 06:36:58;;;;;;;5.60;5.00;;;;;;;16.09;87.09;99884.70;93960;1196;80359;-65
2021/09/17 06:39:04;;;;;;;5.80;5.10;;;;;;;16.06;87.03;99881.03;93938;1196;97600;-76
2021/09/17 06:41:08;;;;;;;9.00;5.50;;;;;;;16.07;86.96;99881.10;93923;1196;88341;-76
2021/09/17 06:43:12;;;;;;;7.90;5.50;;;;;;;16.05;87.01;99882.84;93962;1196;94731;-77
2021/09/17 06:45:17;;;;;;;6.40;5.20;;;;;;;16.04;86.87;99881.45;93928;1195;81586;-76
2021/09/17 06:47:22;;;;;;;6.40;5.30;;;;;;;16.03;86.82;99877.47;93962;1196;81493;-76
2021/09/17 06:49:27;;;;;;;6.20;5.30;;;;;;;16.03;86.82;99880.41;93991;1196;97479;-63
2021/09/17 06:51:34;;;;;;;6.00;5.40;;;;;;;15.98;86.84;99878.76;93946;1196;87771;-63
2021/09/17 06:53:39;;;;;;;7.30;5.70;;;;;;;15.93;86.88;99878.70;93929;1196;94355;-63
2021/09/17 06:55:43;;;;;;;6.80;6.10;;;;;;;15.94;86.79;99878.89;93921;1196;81646;-63
2021/09/17 06:57:50;;;;;;;8.90;6.60;;;;;;;15.95;86.67;99876.45;93949;1196;81605;-62
2021/09/17 06:59:55;;;;;;;9.40;6.20;;;;;;;15.94;86.74;99875.45;93970;1196;97738;-62
2021/09/17 07:02:02;;;;;;;8.70;6.50;;;;;;;15.94;86.88;99875.74;93950;1196;87101;-63
2021/09/17 07:04:06;;;;;;;9.40;6.80;;;;;;;15.96;86.83;99875.17;93927;1197;94346;-76
2021/09/17 07:06:11;;;;;;;9.50;6.50;;;;;;;15.95;86.83;99875.82;93959;1196;80074;-76
2021/09/17 07:08:21;;;;;;;9.90;7.00;;;;;;;16.00;86.78;99874.89;93974;1196;82219;-76
2021/09/17 07:10:25;;;;;;;8.00;6.60;;;;;;;16.04;86.69;99872.90;93873;1196;99021;-62
2021/09/17 07:12:30;;;;;;;10.10;8.10;;;;;;;16.06;86.65;99869.79;93921;1196;86729;-61
2021/09/17 07:14:34;;;;;;;10.90;6.70;;;;;;;16.14;86.68;99870.68;93953;1196;93020;-76
2021/09/17 07:16:39;;;;;;;10.60;8.20;;;;;;;16.14;86.68;99872.27;93977;1196;78104;-75
2021/09/17 07:18:47;;;;;;;9.10;7.80;;;;;;;16.15;86.67;99874.36;94015;1196;81823;-63
2021/09/17 07:20:52;;;;;;;10.40;8.30;;;;;;;16.18;86.65;99870.61;93950;1196;98463;-62
2021/09/17 07:22:57;;;;;;;9.70;7.60;;;;;;;16.23;86.58;99873.02;93996;1196;86874;-62
2021/09/17 07:25:02;;;;;;;7.90;7.10;;;;;;;16.26;86.50;99872.05;93925;1196;93489;-63
2021/09/17 07:27:07;;;;;;;8.20;7.40;;;;;;;16.27;86.50;99870.98;93911;1195;78248;-62
2021/09/17 07:29:11;;;;;;;10.40;8.90;;;;;;;16.32;86.36;99869.84;93966;1195;81667;-62
2021/09/17 07:31:15;;;;;;;10.50;8.90;;;;;;;16.33;86.34;99867.25;93938;1196;99101;-62
2021/09/17 07:33:20;;;;;;;10.90;9.10;;;;;;;16.36;86.39;99868.95;93995;1196;87687;-63
2021/09/17 07:35:26;;;;;;;10.50;8.10;;;;;;;16.38;86.33;99869.75;93933;1196;94007;-62
2021/09/17 07:37:30;;;;;;;8.20;7.40;;;;;;;16.41;86.27;99867.73;94006;1195;78192;-61
2021/09/17 07:39:35;;;;;;;10.70;9.60;;;;;;;16.48;86.23;99870.14;93944;1196;81169;-75
2021/09/17 07:41:39;;;;;;;13.50;11.70;;;;;;;16.50;86.24;99869.27;93960;1196;99007;-75
2021/09/17 07:43:47;;;;;;;9.40;8.50;;;;;;;16.51;86.17;99867.31;93947;1196;87893;-77
2021/09/17 07:45:51;;;;;;;10.70;8.30;;;;;;;16.50;86.06;99865.00;93945;1196;93371;-76
2021/09/17 07:48:00;;;;;;;10.10;7.40;;;;;;;16.53;85.91;99865.73;93975;1196;76914;-76
2021/09/17 07:50:09;;;;;;;9.90;8.00;;;;;;;16.56;85.81;99860.41;93955;1196;81488;-77
2021/09/17 07:52:13;;;;;;;8.50;7.60;;;;;;;16.56;85.78;99861.04;93762;1196;98855;-76
2021/09/17 07:54:17;;;;;;;9.00;8.00;;;;;;;16.55;85.80;99856.61;93710;1197;87207;-76
2021/09/17 07:56:23;;;;;;;9.30;8.00;;;;;;;16.60;85.70;99863.48;93937;1196;93702;-76
2021/09/17 07:58:27;;;;;;;12.30;8.40;;;;;;;16.61;85.70;99863.30;93897;1197;81192;-75
2021/09/17 08:00:32;;;;;;;11.70;8.40;;;;;;;16.60;85.74;99860.48;93959;1196;80929;-75
2021/09/17 08:02:36;;;;;;;9.70;8.50;;;;;;;16.62;85.88;99857.86;93997;1198;98498;-74
2021/09/17 08:04:43;;;;;;;10.40;8.40;;;;;;;16.64;85.91;99858.06;93919;1196;86875;-76
2021/09/17 08:06:51;;;;;;;11.40;9.40;;;;;;;16.64;85.89;99856.55;93920;1197;94388;-76
2021/09/17 08:08:55;;;;;;;10.50;8.60;;;;;;;16.64;85.78;99857.30;93920;1196;79330;-62
2021/09/17 08:11:00;;;;;;;12.90;9.20;;;;;;;16.69;85.70;99856.96;93901;1197;81422;-62
2021/09/17 08:13:04;;;;;;;10.00;8.90;;;;;;;16.72;85.68;99859.42;93979;1196;96261;-61
2021/09/17 08:15:11;;;;;;;11.00;9.30;;;;;;;16.68;85.53;99857.10;93912;1196;88678;-62
2021/09/17 08:17:15;;;;;;;10.70;9.70;;;;;;;16.71;85.53;99854.02;93931;1196;94096;-63
2021/09/17 08:19:20;;;;;;;11.80;10.50;;;;;;;16.72;85.47;99855.01;93916;1196;79419;-63
2021/09/17 08:21:25;;;;;;;11.50;10.50;;;;;;;16.71;85.49;99853.67;93930;1196;81759;-66
2021/09/17 08:23:29;;;;;;;14.00;12.50;;;;;;;16.70;85.51;99852.06;93924;1196;99418;-74
2021/09/17 08:25:34;;;;;;;16.60;15.00;;;;;;;16.81;85.42;99852.83;93979;1197;88374;-77
2021/09/17 08:27:39;;;;;;;14.80;12.90;;;;;;;16.83;85.30;99847.03;93932;1197;93850;-75
2021/09/17 08:29:44;;;;;;;15.00;13.60;;;;;;;16.81;85.51;99847.99;93913;1196;78107;-62
2021/09/17 08:31:49;;;;;;;16.90;15.30;;;;;;;16.86;85.53;99852.12;93960;1196;80103;-63
2021/09/17 08:33:53;;;;;;;17.90;16.10;;;;;;;16.89;85.44;99852.13;93922;1196;97622;-77
2021/09/17 08:35:58;;;;;;;22.50;15.20;;;;;;;16.95;85.32;99852.02;93966;1196;88240;-77
2021/09/17 08:38:03;;;;;;;17.80;15.70;;;;;;;16.98;85.38;99855.73;93928;1196;92754;-76
2021/09/17 08:40:13;;;;;;;15.40;13.80;;;;;;;16.99;85.32;99855.86;93815;1195;79926;-63
2021/09/17 08:42:17;;;;;;;15.90;13.90;;;;;;;17.02;85.22;99857.93;93937;1196;81833;-64
2021/09/17 08:44:22;;;;;;;17.60;15.40;;;;;;;17.07;85.14;99858.86;93935;1197;99659;-62
2021/09/17 08:46:26;;;;;;;18.20;15.80;;;;;;;17.07;84.93;99855.36;93975;1196;87857;-64
2021/09/17 08:48:31;;;;;;;16.90;15.20;;;;;;;17.03;84.92;99855.45;93860;1196;94023;-73
2021/09/17 08:50:36;;;;;;;20.60;17.40;;;;;;;17.04;84.84;99857.71;93851;1196;79601;-75
2021/09/17 08:52:40;;;;;;;17.80;16.00;;;;;;;17.00;85.02;99855.62;93879;1196;81852;-74
2021/09/17 08:54:44;;;;;;;18.20;16.00;;;;;;;17.02;85.13;99856.36;93865;1195;97650;-74
2021/09/17 08:56:52;;;;;;;19.20;17.30;;;;;;;17.00;85.12;99853.27;93950;1195;87734;-74
2021/09/17 08:58:56;;;;;;;19.50;17.30;;;;;;;17.02;84.97;99854.25;93927;1196;92966;-77
2021/09/17 09:01:01;;;;;;;19.00;17.00;;;;;;;17.04;85.01;99857.60;93853;1196;80343;-75
2021/09/17 09:03:08;;;;;;;19.90;17.90;;;;;;;17.07;84.98;99860.71;93880;1196;81908;-73
2021/09/17 09:05:13;;;;;;;18.90;16.90;;;;;;;17.09;84.92;99858.79;93870;1196;97978;-74
2021/09/17 09:07:17;;;;;;;18.50;16.70;;;;;;;17.15;84.77;99855.38;93922;1196;87231;-73
2021/09/17 09:09:22;;;;;;;19.70;17.70;;;;;;;17.19;84.69;99863.33;93888;1196;94257;-74
2021/09/17 09:11:31;;;;;;;19.90;18.20;;;;;;;17.21;84.64;99859.43;93879;1196;79929;-73
2021/09/17 09:13:36;;;;;;;20.20;17.50;;;;;;;17.23;84.51;99854.44;93909;1196;82466;-69
2021/09/17 09:15:41;;;;;;;18.40;16.50;;;;;;;17.25;84.47;99857.77;93903;1196;97579;-72
2021/09/17 09:17:48;;;;;;;18.50;16.60;;;;;;;17.26;84.40;99853.89;93907;1196;88142;-69
2021/09/17 09:19:53;;;;;;;18.10;16.40;;;;;;;17.23;84.41;99857.90;93893;1196;93949;-69
2021/09/17 09:22:14;;;;;;;16.80;15.20;;;;;;;17.22;84.50;99860.39;93932;1195;78387;-68
2021/09/17 09:24:21;;;;;;;18.30;16.70;;;;;;;17.23;84.32;99860.13;93924;1196;81569;-73
2021/09/17 09:26:26;;;;;;;17.30;15.80;;;;;;;17.20;84.34;99861.82;93863;1196;99035;-72
2021/09/17 09:28:33;;;;;;;15.80;14.40;;;;;;;17.19;84.28;99861.64;93887;1196;86861;-71
2021/09/17 09:30:38;;;;;;;16.20;14.70;;;;;;;17.18;84.25;99857.25;93921;1196;93929;-72
2021/09/17 09:32:42;;;;;;;16.90;15.30;;;;;;;17.17;84.41;99860.34;93884;1196;78753;-68
2021/09/17 09:34:54;;;;;;;17.90;16.20;;;;;;;17.20;84.57;99860.93;93898;1196;80182;-71
2021/09/17 09:37:08;;;;;;;19.10;17.10;;;;;;;17.22;84.61;99863.53;93938;1196;98261;-72
2021/09/17 09:39:15;;;;;;;17.90;16.20;;;;;;;17.26;84.41;99858.10;93771;1196;86904;-71